createdAt,value
2023-03-28T00:02:10.461Z,100088.17
2023-03-28T00:04:42.423Z,100084.91
2023-03-28T00:07:15.234Z,100090.08
2023-03-28T00:09:48.716Z,100090.45
2023-03-28T00:12:21.178Z,100088.10
2023-03-28T00:14:52.975Z,100094.17
2023-03-28T00:17:25.126Z,100086.90
2023-03-28T00:19:57.080Z,100086.86
2023-03-28T00:22:30.499Z,100084.89
2023-03-28T00:25:03.103Z,100084.91
2023-03-28T00:27:35.794Z,100087.80
2023-03-28T00:30:11.565Z,100087.44
2023-03-28T00:32:43.478Z,100083.00
2023-03-28T00:35:15.822Z,100078.55
2023-03-28T00:37:51.550Z,100077.99
2023-03-28T00:40:24.134Z,100078.36
2023-03-28T00:42:56.521Z,100079.63
2023-03-28T00:45:28.836Z,100070.86
2023-03-28T00:48:03.526Z,100077.64
2023-03-28T00:50:38.580Z,100075.80
2023-03-28T00:53:16.562Z,100079.00
2023-03-28T00:55:50.941Z,100076.00
2023-03-28T00:58:27.580Z,100079.44
2023-03-28T01:01:00.669Z,100077.33
2023-03-28T01:03:35.710Z,100081.98
2023-03-28T01:06:12.639Z,100083.91
2023-03-28T01:08:47.515Z,100081.98
2023-03-28T01:11:20.686Z,100084.15
2023-03-28T01:13:55.369Z,100083.57
2023-03-28T01:16:32.650Z,100081.40
2023-03-28T01:19:03.708Z,100077.66
2023-03-28T01:22:06.552Z,100079.94
2023-03-28T01:25:02.881Z,100091.68
2023-03-28T01:27:41.293Z,100090.83
2023-03-28T01:30:36.839Z,100081.57
2023-03-28T01:34:08.077Z,100091.15
2023-03-28T01:37:01.568Z,100073.85
2023-03-28T01:39:47.861Z,100077.35
2023-03-28T01:42:30.984Z,100079.83
2023-03-28T01:45:16.825Z,100084.40
2023-03-28T01:47:59.381Z,100082.05
2023-03-28T01:50:38.165Z,100081.70
2023-03-28T01:53:18.714Z,100081.38
2023-03-28T01:55:58.073Z,100082.61
2023-03-28T01:58:44.256Z,100084.16
2023-03-28T02:01:26.449Z,100089.10
2023-03-28T02:04:07.000Z,100096.10
2023-03-28T02:07:02.302Z,100097.54
2023-03-28T02:09:43.802Z,100102.57
2023-03-28T02:12:44.486Z,100101.52
2023-03-28T02:15:33.550Z,100101.67
2023-03-28T02:18:31.650Z,100105.88
2023-03-28T02:21:26.554Z,100095.59
2023-03-28T02:24:17.476Z,100098.13
2023-03-28T02:27:12.743Z,100092.79
2023-03-28T02:29:55.627Z,100095.44
2023-03-28T02:32:35.708Z,100100.95
2023-03-28T02:35:09.724Z,100097.39
2023-03-28T02:37:50.468Z,100094.36
2023-03-28T02:40:42.802Z,100099.91
2023-03-28T02:43:35.764Z,100091.88
2023-03-28T02:46:13.690Z,100092.36
2023-03-28T02:49:11.286Z,100095.17
2023-03-28T02:51:50.716Z,100094.09
2023-03-28T02:54:32.555Z,100108.21
2023-03-28T02:57:36.608Z,100111.47
2023-03-28T03:00:16.687Z,100115.89
2023-03-28T03:02:52.812Z,100118.22
2023-03-28T03:05:24.810Z,100125.81
2023-03-28T03:07:56.990Z,100121.55
2023-03-28T03:10:28.865Z,100125.50
2023-03-28T03:13:00.927Z,100121.27
2023-03-28T03:15:31.820Z,100129.94
2023-03-28T03:18:04.552Z,100135.46
2023-03-28T03:20:37.343Z,100143.48
2023-03-28T03:23:09.510Z,100144.00
2023-03-28T03:25:43.307Z,100142.20
2023-03-28T03:28:23.435Z,100156.06
2023-03-28T03:30:54.578Z,100157.80
2023-03-28T03:33:50.788Z,100165.47
2023-03-28T03:36:27.092Z,100172.79
2023-03-28T03:38:59.103Z,100167.79
2023-03-28T03:41:31.466Z,100182.52
2023-03-28T03:44:03.692Z,100188.12
2023-03-28T03:46:36.690Z,100188.27
2023-03-28T03:49:09.550Z,100194.85
2023-03-28T03:51:41.521Z,100199.88
2023-03-28T03:54:13.367Z,100201.48
2023-03-28T03:56:45.359Z,100207.80
2023-03-28T03:59:18.382Z,100211.51
2023-03-28T04:01:51.386Z,100215.48
2023-03-28T04:04:45.786Z,100220.40
2023-03-28T04:07:28.274Z,100224.34
2023-03-28T04:09:59.619Z,100232.66
2023-03-28T04:12:33.021Z,100240.83
2023-03-28T04:15:05.226Z,100235.25
2023-03-28T04:17:57.254Z,100243.33
2023-03-28T04:20:31.720Z,100249.70
2023-03-28T04:23:13.409Z,100251.09
2023-03-28T04:25:45.443Z,100261.52
2023-03-28T04:28:25.012Z,100264.52
2023-03-28T04:31:02.753Z,100268.74
2023-03-28T04:34:13.724Z,100275.46
2023-03-28T04:36:57.511Z,100279.67
2023-03-28T04:39:30.777Z,100286.23
2023-03-28T04:42:12.556Z,100294.66
2023-03-28T04:45:03.737Z,100296.68
2023-03-28T04:47:37.545Z,100302.20
2023-03-28T04:50:13.003Z,100309.71
2023-03-28T04:52:45.550Z,100314.27
2023-03-28T04:55:17.546Z,100317.14
2023-03-28T04:57:50.711Z,100313.81
2023-03-28T05:00:25.638Z,100322.50
2023-03-28T05:03:14.568Z,100328.98
2023-03-28T05:05:55.444Z,100337.70
2023-03-28T05:08:29.301Z,100342.05
2023-03-28T05:11:05.302Z,100351.71
2023-03-28T05:13:40.580Z,100362.48
2023-03-28T05:16:19.328Z,100361.98
2023-03-28T05:19:10.047Z,100365.23
2023-03-28T05:22:04.884Z,100370.48
2023-03-28T05:24:37.008Z,100379.98
2023-03-28T05:27:15.671Z,100375.47
2023-03-28T05:29:47.640Z,100386.42
2023-03-28T05:32:19.756Z,100383.77
2023-03-28T05:34:51.735Z,100388.38
2023-03-28T05:37:23.770Z,100393.05
2023-03-28T05:40:00.954Z,100390.34
2023-03-28T05:42:33.430Z,100398.70
2023-03-28T05:45:09.147Z,100400.66
2023-03-28T05:47:42.317Z,100405.88
2023-03-28T05:50:14.418Z,100407.95
2023-03-28T05:52:46.489Z,100414.08
2023-03-28T05:55:18.534Z,100418.95
2023-03-28T05:57:50.552Z,100425.16
2023-03-28T06:00:24.454Z,100433.39
2023-03-28T06:02:57.922Z,100434.73
2023-03-28T06:05:36.540Z,100437.81
2023-03-28T06:08:14.063Z,100440.86
2023-03-28T06:10:46.589Z,100445.05
2023-03-28T06:13:24.920Z,100447.13
2023-03-28T06:15:57.382Z,100447.41
2023-03-28T06:18:35.697Z,100445.92
2023-03-28T06:21:09.307Z,100448.73
2023-03-28T06:23:41.301Z,100456.23
2023-03-28T06:26:21.791Z,100459.07
2023-03-28T06:28:53.644Z,100467.11
2023-03-28T06:31:38.552Z,100469.12
2023-03-28T06:34:10.651Z,100465.64
2023-03-28T06:36:51.090Z,100482.58
2023-03-28T06:39:23.093Z,100477.95
2023-03-28T06:42:02.468Z,100490.42
2023-03-28T06:44:40.713Z,100495.00
2023-03-28T06:47:29.599Z,100497.88
2023-03-28T06:50:02.545Z,100501.57
2023-03-28T06:52:44.837Z,100504.71
2023-03-28T06:55:16.741Z,100508.63
2023-03-28T06:57:49.152Z,100507.11
2023-03-28T07:00:35.449Z,100515.98
2023-03-28T07:03:33.707Z,100517.96
2023-03-28T07:06:09.606Z,100522.05
2023-03-28T07:08:41.723Z,100532.58
2023-03-28T07:11:13.923Z,100535.82
2023-03-28T07:13:46.466Z,100542.79
2023-03-28T07:16:19.511Z,100548.98
2023-03-28T07:18:51.407Z,100555.39
2023-03-28T07:21:30.912Z,100559.84
2023-03-28T07:24:04.585Z,100561.88
2023-03-28T07:29:41.002Z,100569.09
2023-03-28T07:32:13.313Z,100566.25
2023-03-28T07:34:45.800Z,100572.30
2023-03-28T07:37:22.922Z,100570.76
2023-03-28T07:40:30.253Z,100568.66
2023-03-28T07:43:02.641Z,100574.38
2023-03-28T07:45:34.804Z,100577.22
2023-03-28T07:48:08.124Z,100574.63
2023-03-28T07:50:41.269Z,100578.65
2023-03-28T07:53:13.714Z,100581.36
2023-03-28T07:55:54.375Z,100592.39
2023-03-28T07:58:29.203Z,100593.45
2023-03-28T08:01:08.769Z,100599.96
2023-03-28T08:03:47.178Z,100606.33
2023-03-28T08:06:31.593Z,100613.39
2023-03-28T08:09:06.497Z,100620.77
2023-03-28T08:11:49.813Z,100624.70
2023-03-28T08:14:20.320Z,100624.59
2023-03-28T08:16:53.859Z,100625.06
2023-03-28T08:19:26.050Z,100625.77
2023-03-28T08:22:17.216Z,100648.22
2023-03-28T08:24:53.618Z,100660.26
2023-03-28T08:27:27.134Z,100662.81
2023-03-28T08:30:02.816Z,100672.95
2023-03-28T08:32:35.858Z,100680.73
2023-03-28T08:35:07.633Z,100671.36
2023-03-28T08:37:39.693Z,100664.96
2023-03-28T08:40:16.285Z,100666.19
2023-03-28T08:42:58.243Z,100669.28
2023-03-28T08:45:43.044Z,100670.44
2023-03-28T08:48:20.605Z,100677.46
2023-03-28T08:50:59.535Z,100687.95
2023-03-28T08:53:37.518Z,100694.20
2023-03-28T08:56:15.409Z,100695.48
2023-03-28T08:58:56.230Z,100701.55
2023-03-28T09:01:32.740Z,100705.68
2023-03-28T09:04:05.605Z,100706.84
2023-03-28T09:06:39.966Z,100719.26
2023-03-28T09:09:34.269Z,100723.50
2023-03-28T09:12:47.251Z,100730.27
2023-03-28T09:15:35.120Z,100734.03
2023-03-28T09:18:44.697Z,100725.48
2023-03-28T09:21:25.987Z,100729.27
2023-03-28T09:24:27.203Z,100724.39
2023-03-28T09:27:25.324Z,100728.01
2023-03-28T09:30:01.839Z,100731.09
2023-03-28T09:32:39.989Z,100733.23
2023-03-28T09:35:18.695Z,100739.05
2023-03-28T09:37:54.238Z,100738.80
2023-03-28T09:40:29.364Z,100747.39
2023-03-28T09:43:46.070Z,100755.02
2023-03-28T09:46:30.134Z,100754.31
2023-03-28T09:49:23.851Z,100745.77
2023-03-28T09:52:17.421Z,100749.82
2023-03-28T09:54:49.768Z,100755.55
2023-03-28T09:57:21.943Z,100759.73
2023-03-28T10:00:07.419Z,100748.41
2023-03-28T10:02:55.302Z,100761.06
2023-03-28T10:05:38.591Z,100766.00
2023-03-28T10:08:27.811Z,100769.90
2023-03-28T10:11:14.591Z,100772.40
2023-03-28T10:13:49.908Z,100776.55
2023-03-28T10:16:27.343Z,100778.53
2023-03-28T10:19:06.431Z,100788.73
2023-03-28T10:22:13.257Z,100794.41
2023-03-28T10:24:51.028Z,100802.31
2023-03-28T10:27:27.707Z,100796.38
2023-03-28T10:30:09.446Z,100799.25
2023-03-28T10:32:42.519Z,100798.90
2023-03-28T10:35:30.967Z,100797.55
2023-03-28T10:38:18.213Z,100792.96
2023-03-28T10:41:10.903Z,100796.95
2023-03-28T10:43:58.237Z,100816.72
2023-03-28T10:46:45.245Z,100816.86
2023-03-28T10:49:24.381Z,100809.46
2023-03-28T10:52:01.917Z,100808.05
2023-03-28T10:54:51.737Z,100813.56
2023-03-28T10:57:42.052Z,100813.77
2023-03-28T11:00:21.262Z,100809.34
2023-03-28T11:03:18.640Z,100809.08
2023-03-28T11:06:08.781Z,100824.11
2023-03-28T11:08:55.245Z,100828.00
2023-03-28T11:11:48.773Z,100823.36
2023-03-28T11:14:33.785Z,100828.51
2023-03-28T11:17:14.049Z,100837.94
2023-03-28T11:20:26.997Z,100846.00
2023-03-28T11:23:31.333Z,100853.31
2023-03-28T11:26:40.153Z,100870.50
2023-03-28T11:29:43.466Z,100879.75
2023-03-28T11:32:22.942Z,100879.29
2023-03-28T11:35:15.036Z,100866.11
2023-03-28T11:37:56.924Z,100861.30
2023-03-28T11:40:36.380Z,100875.98
2023-03-28T11:43:14.662Z,100872.09
2023-03-28T11:45:53.346Z,100873.88
2023-03-28T11:48:36.474Z,100879.92
2023-03-28T11:51:16.205Z,100878.69
2023-03-28T11:54:00.007Z,100882.23
2023-03-28T11:56:44.727Z,100893.18
2023-03-28T11:59:26.444Z,100905.30
2023-03-28T12:02:08.630Z,100909.85
2023-03-28T12:04:49.348Z,100908.27
2023-03-28T12:07:27.140Z,100917.64
2023-03-28T12:10:08.145Z,100918.02
2023-03-28T12:12:52.125Z,100916.60
2023-03-28T12:15:28.505Z,100914.03
2023-03-28T12:18:19.510Z,100920.77
2023-03-28T12:21:00.665Z,100918.91
2023-03-28T12:23:59.484Z,100927.73
2023-03-28T12:27:05.751Z,100937.55
2023-03-28T12:29:46.421Z,100926.95
2023-03-28T12:32:38.129Z,100938.04
2023-03-28T12:35:19.656Z,100920.05
2023-03-28T12:38:06.662Z,100939.35
2023-03-28T12:40:54.893Z,100942.75
2023-03-28T12:43:37.519Z,100942.96
2023-03-28T12:46:13.461Z,100936.66
2023-03-28T12:48:49.348Z,100938.23
2023-03-28T12:51:27.670Z,100944.48
2023-03-28T12:54:24.435Z,100942.14
2023-03-28T12:57:06.302Z,100944.67
2023-03-28T13:00:16.477Z,100944.89
2023-03-28T13:03:34.102Z,100946.73
2023-03-28T13:06:23.691Z,100951.83
2023-03-28T13:09:14.068Z,100953.21
2023-03-28T13:11:56.520Z,100956.25
2023-03-28T13:14:36.357Z,100964.34
2023-03-28T13:17:21.663Z,100959.07
2023-03-28T13:19:55.932Z,100949.55
2023-03-28T13:22:32.273Z,100962.92
2023-03-28T13:25:27.588Z,100972.64
2023-03-28T13:28:22.542Z,100965.38
2023-03-28T13:31:13.478Z,100960.67
2023-03-28T13:33:49.771Z,100971.40
2023-03-28T13:36:28.169Z,100971.42
2023-03-28T13:39:26.646Z,100964.59
2023-03-28T13:42:04.555Z,100974.46
2023-03-28T13:44:46.178Z,100970.52
2023-03-28T13:47:23.301Z,100966.02
2023-03-28T13:50:02.484Z,100962.42
2023-03-28T13:52:34.946Z,100966.73
2023-03-28T13:55:20.647Z,100965.98
2023-03-28T13:57:53.971Z,100960.70
2023-03-28T14:00:28.852Z,100970.70
2023-03-28T14:03:16.432Z,100964.20
2023-03-28T14:05:50.371Z,100967.92
2023-03-28T14:08:26.555Z,100967.59
2023-03-28T14:11:17.580Z,100955.80
2023-03-28T14:14:25.931Z,100975.93
2023-03-28T14:16:59.607Z,100968.30
2023-03-28T14:19:40.257Z,100977.42
2023-03-28T14:22:19.590Z,100975.36
2023-03-28T14:24:57.876Z,100973.02
2023-03-28T14:27:37.778Z,100972.71
2023-03-28T14:30:21.009Z,100968.04
2023-03-28T14:32:59.944Z,100972.35
2023-03-28T14:35:34.368Z,100981.55
2023-03-28T14:38:08.243Z,100987.80
2023-03-28T14:40:42.090Z,100981.60
2023-03-28T14:43:27.291Z,100983.70
2023-03-28T14:46:03.116Z,100980.77
2023-03-28T14:48:36.852Z,100981.69
2023-03-28T14:51:12.580Z,100983.38
2023-03-28T14:53:47.653Z,100982.59
2023-03-28T14:56:24.444Z,100980.76
2023-03-28T14:59:00.447Z,100984.80
2023-03-28T15:01:34.446Z,100992.84
2023-03-28T15:04:09.236Z,100996.29
2023-03-28T15:06:41.648Z,100992.06
2023-03-28T15:09:28.606Z,100992.69
2023-03-28T15:12:05.235Z,100995.74
2023-03-28T15:14:43.054Z,100992.05
2023-03-28T15:17:21.583Z,100996.04
2023-03-28T15:19:58.691Z,100996.95
2023-03-28T15:22:33.375Z,100999.84
2023-03-28T15:25:05.814Z,101003.25
2023-03-28T15:27:38.213Z,101005.91
2023-03-28T15:30:17.611Z,101018.30
2023-03-28T15:32:50.930Z,101018.05
2023-03-28T15:35:32.364Z,101020.77
2023-03-28T15:38:09.817Z,101013.73
2023-03-28T15:40:43.780Z,101026.11
2023-03-28T15:43:38.790Z,101024.15
2023-03-28T15:46:16.441Z,101027.22
2023-03-28T15:48:48.983Z,101026.67
2023-03-28T15:51:24.684Z,101037.98
2023-03-28T15:53:58.920Z,101038.30
2023-03-28T15:56:33.958Z,101038.08
2023-03-28T15:59:18.696Z,101043.33
2023-03-28T16:01:51.285Z,101042.98
2023-03-28T16:04:29.056Z,101041.11
2023-03-28T16:07:13.601Z,101044.30
2023-03-28T16:09:46.650Z,101050.38
2023-03-28T16:12:19.600Z,101053.38
2023-03-28T16:15:12.478Z,101049.94
2023-03-28T16:17:49.658Z,101058.45
2023-03-28T16:20:42.878Z,101055.70
2023-03-28T16:23:16.378Z,101056.55
2023-03-28T16:25:48.495Z,101058.77
2023-03-28T16:28:20.643Z,101060.00
2023-03-28T16:30:53.433Z,101064.59
2023-03-28T16:33:25.893Z,101066.00
2023-03-28T16:35:57.969Z,101061.63
2023-03-28T16:38:30.288Z,101066.10
2023-03-28T16:41:02.336Z,101069.77
2023-03-28T16:43:34.217Z,101073.36
2023-03-28T16:46:07.137Z,101077.79
2023-03-28T16:48:39.230Z,101070.23
2023-03-28T16:51:11.207Z,101079.95
2023-03-28T16:53:44.140Z,101081.66
2023-03-28T16:56:17.470Z,101082.66
2023-03-28T16:58:49.861Z,101084.73
2023-03-28T17:01:22.945Z,101086.77
2023-03-28T17:03:55.681Z,101090.45
2023-03-28T17:06:28.096Z,101090.39
2023-03-28T17:09:00.390Z,101088.52
2023-03-28T17:11:32.863Z,101090.27
2023-03-28T17:14:04.785Z,101090.41
2023-03-28T17:16:40.330Z,101092.10
2023-03-28T17:19:12.582Z,101096.83
2023-03-28T17:21:44.847Z,101097.91
2023-03-28T17:24:16.694Z,101099.08
2023-03-28T17:26:49.078Z,101100.90
2023-03-28T17:29:21.374Z,101102.57
2023-03-28T17:31:53.795Z,101105.52
2023-03-28T17:34:26.135Z,101108.88
2023-03-28T17:36:58.386Z,101109.58
2023-03-28T17:39:32.634Z,101110.32
2023-03-28T17:42:09.124Z,101114.70
2023-03-28T17:44:41.514Z,101129.75
2023-03-28T17:47:13.606Z,101123.91
2023-03-28T17:49:45.578Z,101128.30
2023-03-28T17:52:17.817Z,101129.55
2023-03-28T17:54:51.605Z,101132.17
2023-03-28T17:57:24.439Z,101131.05
2023-03-28T17:59:56.296Z,101134.92
2023-03-28T18:02:28.950Z,101135.45
2023-03-28T18:05:10.374Z,101137.00
2023-03-28T18:07:43.586Z,101128.42
2023-03-28T18:10:16.500Z,101140.85
2023-03-28T18:12:48.414Z,101142.37
2023-03-28T18:15:21.872Z,101146.58
2023-03-28T18:17:53.844Z,101149.42
2023-03-28T18:20:26.422Z,101151.35
2023-03-28T18:22:58.652Z,101151.69
2023-03-28T18:25:34.094Z,101153.12
2023-03-28T18:28:06.592Z,101155.46
2023-03-28T18:30:40.508Z,101161.48
2023-03-28T18:33:12.679Z,101164.34
2023-03-28T18:35:44.000Z,101171.27
2023-03-28T18:38:16.611Z,101171.30
2023-03-28T18:40:54.472Z,101170.98
2023-03-28T18:43:27.076Z,101170.39
2023-03-28T18:46:00.934Z,101162.46
2023-03-28T18:48:34.337Z,101165.06
2023-03-28T18:51:06.224Z,101173.37
2023-03-28T18:53:38.879Z,101178.61
2023-03-28T18:56:13.486Z,101173.92
2023-03-28T18:58:49.018Z,101173.77
2023-03-28T19:01:23.176Z,101174.16
2023-03-28T19:03:55.741Z,101171.39
2023-03-28T19:06:28.816Z,101179.42
2023-03-28T19:09:05.344Z,101171.75
2023-03-28T19:11:37.318Z,101174.67
2023-03-28T19:14:09.497Z,101170.57
2023-03-28T19:16:41.812Z,101173.63
2023-03-28T19:19:14.194Z,101169.82
2023-03-28T19:21:44.913Z,101165.98
2023-03-28T19:24:17.058Z,101165.34
2023-03-28T19:26:49.547Z,101166.49
2023-03-28T19:29:21.734Z,101163.95
2023-03-28T19:31:53.788Z,101162.63
2023-03-28T19:34:25.897Z,101164.52
2023-03-28T19:36:58.202Z,101166.38
2023-03-28T19:39:30.629Z,101165.77
2023-03-28T19:42:02.451Z,101161.02
2023-03-28T19:44:34.309Z,101160.58
2023-03-28T19:47:06.993Z,101160.77
2023-03-28T19:49:40.046Z,101161.64
2023-03-28T19:52:12.248Z,101165.65
2023-03-28T19:54:44.297Z,101167.66
2023-03-28T19:57:16.362Z,101172.45
2023-03-28T19:59:48.307Z,101168.38
2023-03-28T20:02:20.338Z,101167.87
2023-03-28T20:04:52.520Z,101164.51
2023-03-28T20:07:24.695Z,101167.95
2023-03-28T20:09:56.583Z,101169.48
2023-03-28T20:12:28.579Z,101171.65
2023-03-28T20:15:00.753Z,101167.08
2023-03-28T20:17:32.854Z,101158.58
2023-03-28T20:20:10.433Z,101158.50
2023-03-28T20:22:42.314Z,101161.31
2023-03-28T20:25:14.780Z,101159.12
2023-03-28T20:27:47.743Z,101155.73
2023-03-28T20:30:20.438Z,101143.85
2023-03-28T20:32:51.890Z,101154.09
2023-03-28T20:35:23.879Z,101153.53
2023-03-28T20:37:56.062Z,101151.67
2023-03-28T20:40:28.139Z,101159.14
2023-03-28T20:43:02.014Z,101158.39
2023-03-28T20:45:35.964Z,101159.11
2023-03-28T20:48:11.146Z,101167.19
2023-03-28T20:50:44.195Z,101160.39
2023-03-28T20:53:16.425Z,101161.48
2023-03-28T20:55:48.774Z,101163.73
2023-03-28T20:58:21.854Z,101170.63
2023-03-28T21:00:58.331Z,101170.72
2023-03-28T21:03:46.795Z,101170.94
2023-03-28T21:06:21.467Z,101172.89
2023-03-28T21:08:56.089Z,101173.11
2023-03-28T21:11:30.548Z,101171.52
2023-03-28T21:14:04.085Z,101169.70
2023-03-28T21:16:37.853Z,101174.11
2023-03-28T21:19:10.254Z,101173.79
2023-03-28T21:21:42.074Z,101170.35
2023-03-28T21:24:13.923Z,101169.17
2023-03-28T21:26:45.991Z,101168.64
2023-03-28T21:29:17.982Z,101168.42
2023-03-28T21:31:50.020Z,101160.59
2023-03-28T21:34:33.934Z,101166.14
2023-03-28T21:37:06.635Z,101158.74
2023-03-28T21:39:38.779Z,101161.19
2023-03-28T21:42:10.715Z,101160.42
2023-03-28T21:44:43.082Z,101157.81
2023-03-28T21:47:14.900Z,101161.89
2023-03-28T21:49:49.360Z,101162.19
2023-03-28T21:52:21.452Z,101165.31
2023-03-28T21:54:53.314Z,101160.77
2023-03-28T21:57:25.622Z,101166.33
2023-03-28T21:59:57.444Z,101166.48
2023-03-28T22:02:29.535Z,101171.03
2023-03-28T22:05:01.748Z,101170.20
2023-03-28T22:07:33.902Z,101169.39
2023-03-28T22:10:07.057Z,101170.31
2023-03-28T22:12:44.899Z,101173.39
2023-03-28T22:15:16.823Z,101181.01
2023-03-28T22:17:48.693Z,101182.84
2023-03-28T22:20:22.379Z,101178.98
2023-03-28T22:22:54.634Z,101173.13
2023-03-28T22:25:26.514Z,101178.45
2023-03-28T22:27:59.501Z,101176.13
2023-03-28T22:30:31.723Z,101175.71
2023-03-28T22:33:04.237Z,101171.73
2023-03-28T22:35:34.924Z,101172.15
2023-03-28T22:38:07.194Z,101173.64
2023-03-28T22:40:39.072Z,101173.52
2023-03-28T22:43:11.739Z,101176.73
2023-03-28T22:45:43.699Z,101174.44
2023-03-28T22:48:16.087Z,101174.11
2023-03-28T22:50:48.658Z,101169.62
2023-03-28T22:53:23.683Z,101175.94
2023-03-28T22:55:57.704Z,101172.07
2023-03-28T22:58:30.141Z,101176.30
2023-03-28T23:01:03.458Z,101171.70
2023-03-28T23:03:35.632Z,101172.94
2023-03-28T23:06:08.581Z,101171.73
2023-03-28T23:08:41.130Z,101171.46
2023-03-28T23:11:13.013Z,101165.39
2023-03-28T23:13:44.914Z,101165.41
2023-03-28T23:16:16.993Z,101158.45
2023-03-28T23:18:49.942Z,101162.89
2023-03-28T23:21:23.141Z,101162.29
2023-03-28T23:23:55.693Z,101163.08
2023-03-28T23:26:27.747Z,101164.66
2023-03-28T23:28:59.570Z,101158.42
2023-03-28T23:31:31.530Z,101157.65
2023-03-28T23:34:03.488Z,101157.13
2023-03-28T23:36:35.717Z,101155.55
2023-03-28T23:39:08.048Z,101155.38
2023-03-28T23:41:39.929Z,101151.60
2023-03-28T23:44:12.103Z,101148.84
2023-03-28T23:46:43.925Z,101149.41
2023-03-28T23:49:15.749Z,101145.06
2023-03-28T23:51:47.591Z,101139.77
2023-03-28T23:54:19.809Z,101138.17
2023-03-28T23:56:51.686Z,101134.95
2023-03-28T23:59:25.272Z,101132.86
